Terminal Aerodrome Forecast
Issued by NWS

Home | Current Version | Previous Version | Text Only | Print | Product List | Glossary On
Versions: 1 2 3 4 5 6 7 8 9 10 11 12 13 14 15 16 17 18 19 20
649
FTUS41 KCAR 100520
TAFHUL
TAF
KHUL 100520Z 1006/1106 32006KT 6SM -SHSN OVC018
     FM101200 VRB03KT P6SM BKN024
     FM110000 VRB03KT P6SM VCSH OVC018=

USA.gov is the U.S. government's official web portal to all federal, state and local government web resources and services.